createdAt,value
2023-01-12T00:01:08.798Z,100339.56
2023-01-12T00:03:35.195Z,100336.34
2023-01-12T00:06:01.969Z,100328.44
2023-01-12T00:08:28.319Z,100329.56
2023-01-12T00:10:57.533Z,100326.13
2023-01-12T00:13:23.887Z,100327.03
2023-01-12T00:16:09.066Z,100316.53
2023-01-12T00:18:35.497Z,100317.00
2023-01-12T00:21:01.913Z,100317.88
2023-01-12T00:23:29.244Z,100330.06
2023-01-12T00:25:55.659Z,100331.34
2023-01-12T00:28:22.055Z,100327.78
2023-01-12T00:30:48.407Z,100320.69
2023-01-12T00:33:14.820Z,100322.63
2023-01-12T00:35:41.182Z,100318.31
2023-01-12T00:38:07.682Z,100318.41
2023-01-12T00:40:36.387Z,100323.78
2023-01-12T00:43:21.569Z,100330.59
2023-01-12T00:45:51.146Z,100322.53
2023-01-12T00:48:17.606Z,100325.38
2023-01-12T00:50:44.013Z,100314.59
2023-01-12T00:53:10.401Z,100331.88
2023-01-12T00:55:36.854Z,100324.69
2023-01-12T00:58:03.290Z,100323.16
2023-01-12T01:00:29.742Z,100317.53
2023-01-12T01:02:56.318Z,100320.56
2023-01-12T01:05:22.707Z,100315.81
2023-01-12T01:07:49.143Z,100321.13
2023-01-12T01:10:16.967Z,100318.97
2023-01-12T01:12:43.449Z,100319.34
2023-01-12T01:15:10.399Z,100316.94
2023-01-12T01:17:36.777Z,100324.25
2023-01-12T01:20:04.516Z,100314.72
2023-01-12T01:22:30.916Z,100317.41
2023-01-12T01:24:57.333Z,100318.88
2023-01-12T01:27:23.787Z,100318.19
2023-01-12T01:29:50.179Z,100315.56
2023-01-12T01:32:16.601Z,100311.38
2023-01-12T01:34:43.920Z,100317.50
2023-01-12T01:37:10.429Z,100305.78
2023-01-12T01:39:36.768Z,100320.25
2023-01-12T01:42:03.290Z,100315.19
2023-01-12T01:44:29.650Z,100311.19
2023-01-12T01:46:58.850Z,100309.94
2023-01-12T01:49:25.260Z,100312.97
2023-01-12T01:51:55.667Z,100310.66
2023-01-12T01:54:23.292Z,100304.41
2023-01-12T01:56:55.557Z,100298.03
2023-01-12T01:59:26.161Z,100284.97
2023-01-12T02:01:53.951Z,100274.13
2023-01-12T02:04:21.054Z,100288.16
2023-01-12T02:06:48.605Z,100282.78
2023-01-12T02:09:19.470Z,100282.09
2023-01-12T02:12:05.461Z,100270.78
2023-01-12T02:14:52.151Z,100268.72
2023-01-12T02:17:43.271Z,100264.84
2023-01-12T02:20:35.421Z,100268.81
2023-01-12T02:23:24.032Z,100263.72
2023-01-12T02:26:17.182Z,100268.16
2023-01-12T02:29:08.690Z,100261.06
2023-01-12T02:31:44.180Z,100257.16
2023-01-12T02:34:32.260Z,100251.25
2023-01-12T02:37:13.207Z,100245.22
2023-01-12T02:39:49.901Z,100260.13
2023-01-12T02:42:42.441Z,100251.16
2023-01-12T02:45:27.517Z,100250.09
2023-01-12T02:48:05.885Z,100249.22
2023-01-12T02:50:41.275Z,100243.81
2023-01-12T02:53:18.291Z,100259.81
2023-01-12T02:55:46.918Z,100245.72
2023-01-12T02:58:17.037Z,100246.50
2023-01-12T03:00:45.845Z,100255.22
2023-01-12T03:03:12.668Z,100254.94
2023-01-12T03:05:41.194Z,100260.34
2023-01-12T03:08:11.803Z,100269.81
2023-01-12T03:10:56.150Z,100269.91
2023-01-12T03:13:24.547Z,100264.59
2023-01-12T03:15:55.364Z,100251.41
2023-01-12T03:18:32.525Z,100244.25
2023-01-12T03:21:11.046Z,100248.59
2023-01-12T03:24:03.216Z,100247.06
2023-01-12T03:26:33.574Z,100238.59
2023-01-12T03:29:24.930Z,100235.66
2023-01-12T03:31:51.458Z,100238.00
2023-01-12T03:34:17.947Z,100234.94
2023-01-12T03:37:06.590Z,100231.84
2023-01-12T03:39:38.885Z,100230.50
2023-01-12T03:42:15.509Z,100220.66
2023-01-12T03:44:54.178Z,100231.19
2023-01-12T03:47:27.406Z,100225.56
2023-01-12T03:49:58.175Z,100226.16
2023-01-12T03:52:25.782Z,100226.44
2023-01-12T03:54:56.687Z,100216.00
2023-01-12T03:57:23.541Z,100226.66
2023-01-12T03:59:49.993Z,100223.88
2023-01-12T04:02:16.432Z,100218.19
2023-01-12T04:04:42.854Z,100219.16
2023-01-12T04:07:09.384Z,100215.72
2023-01-12T04:09:35.786Z,100212.28
2023-01-12T04:12:10.859Z,100211.22
2023-01-12T04:14:42.370Z,100205.56
2023-01-12T04:17:11.876Z,100204.13
2023-01-12T04:19:38.224Z,100208.47
2023-01-12T04:22:23.126Z,100201.03
2023-01-12T04:24:49.779Z,100202.97
2023-01-12T04:27:16.729Z,100201.63
2023-01-12T04:29:43.670Z,100200.16
2023-01-12T04:32:10.774Z,100195.72
2023-01-12T04:34:39.075Z,100202.13
2023-01-12T04:37:05.433Z,100203.16
2023-01-12T04:39:31.855Z,100191.28
2023-01-12T04:41:58.198Z,100183.25
2023-01-12T04:44:24.570Z,100187.66
2023-01-12T04:46:51.337Z,100178.00
2023-01-12T04:49:17.857Z,100177.28
2023-01-12T04:51:44.520Z,100173.22
2023-01-12T04:54:11.124Z,100176.63
2023-01-12T04:56:37.683Z,100172.47
2023-01-12T04:59:06.427Z,100160.31
2023-01-12T05:01:33.228Z,100155.94
2023-01-12T05:04:03.164Z,100143.72
2023-01-12T05:06:29.605Z,100128.41
2023-01-12T05:09:14.597Z,100123.16
2023-01-12T05:11:41.031Z,100126.44
2023-01-12T05:14:07.391Z,100115.06
2023-01-12T05:16:33.851Z,100120.69
2023-01-12T05:19:00.269Z,100109.09
2023-01-12T05:21:26.662Z,100103.72
2023-01-12T05:23:53.325Z,100088.56
2023-01-12T05:26:20.180Z,100087.69
2023-01-12T05:28:50.885Z,100075.50
2023-01-12T05:31:19.467Z,100083.31
2023-01-12T05:33:46.282Z,100074.34
2023-01-12T05:36:15.504Z,100077.16
2023-01-12T05:38:42.310Z,100069.09
2023-01-12T05:41:13.053Z,100079.22
2023-01-12T05:43:51.719Z,100071.81
2023-01-12T05:46:31.772Z,100066.66
2023-01-12T05:48:58.691Z,100068.53
2023-01-12T05:51:26.937Z,100071.53
2023-01-12T05:53:54.748Z,100065.34
2023-01-12T05:56:25.698Z,100074.13
2023-01-12T05:58:54.679Z,100082.38
2023-01-12T06:01:21.962Z,100070.94
2023-01-12T06:03:50.667Z,100069.25
2023-01-12T06:06:19.011Z,100074.41
2023-01-12T06:08:46.344Z,100075.38
2023-01-12T06:11:32.174Z,100053.31
2023-01-12T06:13:59.341Z,100059.66
2023-01-12T06:16:26.958Z,100048.78
2023-01-12T06:18:54.130Z,100043.50
2023-01-12T06:21:20.700Z,100054.03
2023-01-12T06:23:47.215Z,100054.25
2023-01-12T06:26:13.608Z,100037.06
2023-01-12T06:28:42.532Z,100032.97
2023-01-12T06:31:11.898Z,100040.25
2023-01-12T06:33:38.653Z,100024.53
2023-01-12T06:36:05.654Z,100020.94
2023-01-12T06:38:33.617Z,100028.81
2023-01-12T06:41:03.931Z,100033.84
2023-01-12T06:43:30.563Z,100033.88
2023-01-12T06:45:57.355Z,100039.44
2023-01-12T06:48:25.929Z,100031.28
2023-01-12T06:51:03.055Z,100031.09
2023-01-12T06:53:29.463Z,100031.75
2023-01-12T06:55:55.864Z,100022.84
2023-01-12T06:58:22.286Z,100023.31
2023-01-12T07:00:48.709Z,100026.69
2023-01-12T07:03:19.708Z,100026.75
2023-01-12T07:05:46.416Z,100025.97
2023-01-12T07:08:15.974Z,100018.88
2023-01-12T07:10:42.947Z,100015.13
2023-01-12T07:13:09.337Z,100015.25
2023-01-12T07:15:35.851Z,100005.72
2023-01-12T07:18:02.263Z,99998.88
2023-01-12T07:20:28.871Z,100011.78
2023-01-12T07:22:55.799Z,99994.66
2023-01-12T07:25:23.114Z,100003.19
2023-01-12T07:27:51.610Z,100007.06
2023-01-12T07:30:21.951Z,100002.31
2023-01-12T07:32:49.146Z,99991.59
2023-01-12T07:35:16.774Z,99989.25
2023-01-12T07:37:50.516Z,100001.72
2023-01-12T07:40:17.940Z,99996.59
2023-01-12T07:42:44.553Z,99995.69
2023-01-12T07:45:11.818Z,99989.97
2023-01-12T07:47:38.338Z,100002.91
2023-01-12T07:50:05.325Z,99989.09
2023-01-12T07:52:31.958Z,99983.13
2023-01-12T07:54:58.398Z,99993.19
2023-01-12T07:57:24.792Z,99978.25
2023-01-12T07:59:51.177Z,99974.28
2023-01-12T08:02:19.218Z,99983.34
2023-01-12T08:04:46.846Z,99968.31
2023-01-12T08:07:13.664Z,99975.75
2023-01-12T08:09:40.094Z,99969.22
2023-01-12T08:12:06.492Z,99969.22
2023-01-12T08:14:37.184Z,99973.22
2023-01-12T08:17:08.065Z,99981.88
2023-01-12T08:19:40.871Z,99990.81
2023-01-12T08:22:12.769Z,99987.34
2023-01-12T08:24:44.352Z,99985.69
2023-01-12T08:27:11.314Z,99990.22
2023-01-12T08:29:44.057Z,99984.00
2023-01-12T08:32:13.339Z,99978.16
2023-01-12T08:34:42.181Z,99971.41
2023-01-12T08:37:11.977Z,99977.38
2023-01-12T08:39:39.402Z,99984.34
2023-01-12T08:42:06.085Z,99984.22
2023-01-12T08:44:36.213Z,99986.59
2023-01-12T08:47:04.751Z,99989.63
2023-01-12T08:49:33.300Z,100000.03
2023-01-12T08:51:59.735Z,99985.25
2023-01-12T08:54:26.351Z,99995.25
2023-01-12T08:56:54.655Z,99990.84
2023-01-12T08:59:21.070Z,99988.38
2023-01-12T09:01:48.169Z,99993.16
2023-01-12T09:04:14.854Z,99994.19
2023-01-12T09:06:43.477Z,99998.88
2023-01-12T09:09:12.774Z,99994.88
2023-01-12T09:11:41.509Z,99989.72
2023-01-12T09:14:08.621Z,99989.97
2023-01-12T09:16:35.526Z,99997.22
2023-01-12T09:19:02.469Z,100002.13
2023-01-12T09:21:30.524Z,99990.44
2023-01-12T09:23:57.307Z,99973.00
2023-01-12T09:26:31.661Z,99975.44
2023-01-12T09:28:59.248Z,99983.25
2023-01-12T09:31:27.422Z,99978.50
2023-01-12T09:33:54.556Z,99978.94
2023-01-12T09:36:27.743Z,99984.97
2023-01-12T09:38:54.561Z,99982.25
2023-01-12T09:41:46.947Z,99991.22
2023-01-12T09:44:38.016Z,99991.84
2023-01-12T09:47:10.210Z,99994.53
2023-01-12T09:49:42.067Z,99994.09
2023-01-12T09:52:15.058Z,99994.34
2023-01-12T09:54:41.948Z,99983.81
2023-01-12T09:57:49.267Z,99999.97
2023-01-12T10:00:17.678Z,99990.41
2023-01-12T10:02:49.446Z,100000.97
2023-01-12T10:05:43.668Z,99979.19
2023-01-12T10:08:15.794Z,99986.66
2023-01-12T10:10:53.319Z,99984.06
2023-01-12T10:13:20.979Z,99988.53
2023-01-12T10:16:02.531Z,99987.03
2023-01-12T10:18:47.473Z,99986.31
2023-01-12T10:21:14.449Z,99991.38
2023-01-12T10:23:41.208Z,99982.84
2023-01-12T10:26:23.517Z,99996.94
2023-01-12T10:28:53.519Z,99992.97
2023-01-12T10:31:23.143Z,99998.19
2023-01-12T10:34:07.050Z,100015.22
2023-01-12T10:36:36.648Z,100003.75
2023-01-12T10:39:04.861Z,99995.28
2023-01-12T10:41:34.813Z,100003.69
2023-01-12T10:44:01.152Z,100000.22
2023-01-12T10:46:31.825Z,99991.50
2023-01-12T10:49:18.558Z,100003.63
2023-01-12T10:51:59.399Z,99997.06
2023-01-12T10:54:34.238Z,100000.56
2023-01-12T10:57:04.754Z,99996.13
2023-01-12T10:59:34.400Z,100000.41
2023-01-12T11:02:03.865Z,99993.97
2023-01-12T11:04:36.641Z,99991.69
2023-01-12T11:07:08.465Z,99987.22
2023-01-12T11:09:34.884Z,99988.97
2023-01-12T11:12:03.910Z,99976.38
2023-01-12T11:14:35.796Z,99970.59
2023-01-12T11:17:21.377Z,99972.16
2023-01-12T11:19:50.975Z,99970.94
2023-01-12T11:22:35.449Z,99963.75
2023-01-12T11:25:22.607Z,99962.91
2023-01-12T11:27:58.462Z,99970.16
2023-01-12T11:30:44.359Z,99966.56
2023-01-12T11:33:20.392Z,99964.09
2023-01-12T11:36:08.394Z,99959.69
2023-01-12T11:38:43.730Z,99956.41
2023-01-12T11:41:39.429Z,99965.50
2023-01-12T11:44:29.388Z,99964.50
2023-01-12T11:47:04.694Z,99962.78
2023-01-12T11:49:52.879Z,99970.34
2023-01-12T11:52:19.525Z,99966.34
2023-01-12T11:54:45.984Z,99966.25
2023-01-12T11:57:18.171Z,99970.81
2023-01-12T11:59:56.754Z,99959.44
2023-01-12T12:02:39.756Z,99961.09
2023-01-12T12:05:18.215Z,99954.22
2023-01-12T12:07:59.746Z,99957.50
2023-01-12T12:10:49.794Z,99958.81
2023-01-12T12:13:16.203Z,99971.69
2023-01-12T12:16:06.760Z,99947.97
2023-01-12T12:18:35.842Z,99946.13
2023-01-12T12:21:20.587Z,99939.59
2023-01-12T12:23:56.119Z,99939.69
2023-01-12T12:26:34.478Z,99924.31
2023-01-12T12:29:38.682Z,99928.09
2023-01-12T12:32:30.698Z,99923.38
2023-01-12T12:35:43.479Z,99929.47
2023-01-12T12:38:18.041Z,99927.84
2023-01-12T12:41:12.582Z,99918.91
2023-01-12T12:43:57.970Z,99910.41
2023-01-12T12:46:27.026Z,99911.84
2023-01-12T12:49:09.447Z,99916.91
2023-01-12T12:51:38.955Z,99919.84
2023-01-12T12:54:10.717Z,99918.25
2023-01-12T12:56:38.198Z,99917.97
2023-01-12T12:59:04.853Z,99918.75
2023-01-12T13:01:31.318Z,99913.53
2023-01-12T13:04:00.464Z,99920.03
2023-01-12T13:06:38.547Z,99906.97
2023-01-12T13:09:17.062Z,99904.19
2023-01-12T13:11:46.210Z,99907.28
2023-01-12T13:14:25.135Z,99904.25
2023-01-12T13:16:57.131Z,99908.59
2023-01-12T13:19:46.435Z,99894.94
2023-01-12T13:22:37.312Z,99893.75
2023-01-12T13:25:24.187Z,99891.00
2023-01-12T13:28:00.239Z,99887.88
2023-01-12T13:30:26.725Z,99875.75
2023-01-12T13:32:53.059Z,99881.75
2023-01-12T13:35:34.399Z,99878.22
2023-01-12T13:38:22.733Z,99877.13
2023-01-12T13:40:55.727Z,99876.91
2023-01-12T13:43:30.455Z,99877.78
2023-01-12T13:46:29.087Z,99877.91
2023-01-12T13:48:56.543Z,99865.69
2023-01-12T13:51:29.000Z,99869.72
2023-01-12T13:54:05.763Z,99874.69
2023-01-12T13:56:32.898Z,99878.34
2023-01-12T13:59:02.168Z,99880.94
2023-01-12T14:01:36.038Z,99891.53
2023-01-12T14:04:20.004Z,99881.59
2023-01-12T14:07:17.592Z,99889.56
2023-01-12T14:10:06.895Z,99891.97
2023-01-12T14:13:03.003Z,99891.31
2023-01-12T14:16:03.743Z,99887.31
2023-01-12T14:18:49.040Z,99883.72
2023-01-12T14:21:33.106Z,99878.38
2023-01-12T14:24:28.831Z,99896.44
2023-01-12T14:26:55.253Z,99892.63
2023-01-12T14:29:21.750Z,99895.22
2023-01-12T14:31:50.571Z,99890.66
2023-01-12T14:34:34.579Z,99891.91
2023-01-12T14:37:07.690Z,99884.53
2023-01-12T14:39:40.973Z,99893.34
2023-01-12T14:42:35.329Z,99880.94
2023-01-12T14:45:20.786Z,99882.00
2023-01-12T14:47:47.271Z,99878.00
2023-01-12T14:50:16.207Z,99882.94
2023-01-12T14:52:44.917Z,99885.22
2023-01-12T14:55:39.375Z,99877.00
2023-01-12T14:58:06.257Z,99879.03
2023-01-12T15:00:36.736Z,99884.31
2023-01-12T15:03:18.863Z,99881.81
2023-01-12T15:05:51.315Z,99879.66
2023-01-12T15:08:26.729Z,99877.63
2023-01-12T15:10:59.459Z,99881.41
2023-01-12T15:13:28.692Z,99877.69
2023-01-12T15:16:15.865Z,99877.69
2023-01-12T15:19:00.869Z,99871.59
2023-01-12T15:21:47.342Z,99863.59
2023-01-12T15:24:48.219Z,99879.97
2023-01-12T15:27:17.125Z,99870.19
2023-01-12T15:29:43.920Z,99874.31
2023-01-12T15:32:22.181Z,99868.69
2023-01-12T15:34:48.862Z,99857.94
2023-01-12T15:37:18.304Z,99866.06
2023-01-12T15:39:45.574Z,99874.47
2023-01-12T15:42:18.340Z,99879.50
2023-01-12T15:44:46.148Z,99881.31
2023-01-12T15:47:14.295Z,99880.72
2023-01-12T15:49:42.026Z,99873.09
2023-01-12T15:52:13.916Z,99876.44
2023-01-12T15:54:41.171Z,99875.22
2023-01-12T15:57:11.151Z,99878.53
2023-01-12T15:59:37.751Z,99875.25
2023-01-12T16:02:10.249Z,99875.31
2023-01-12T16:04:42.869Z,99875.59
2023-01-12T16:07:09.979Z,99868.53
2023-01-12T16:09:36.455Z,99875.00
2023-01-12T16:12:02.900Z,99871.53
2023-01-12T16:14:29.317Z,99856.38
2023-01-12T16:16:55.723Z,99868.13
2023-01-12T16:19:23.556Z,99871.38
2023-01-12T16:21:50.041Z,99874.31
2023-01-12T16:24:16.444Z,99862.81
2023-01-12T16:26:43.658Z,99865.00
2023-01-12T16:29:10.202Z,99858.56
2023-01-12T16:31:39.080Z,99866.00
2023-01-12T16:34:05.944Z,99857.38
2023-01-12T16:36:32.392Z,99857.56
2023-01-12T16:38:58.840Z,99862.16
2023-01-12T16:41:25.299Z,99869.13
2023-01-12T16:43:52.076Z,99857.22
2023-01-12T16:46:18.768Z,99863.03
2023-01-12T16:48:45.488Z,99861.56
2023-01-12T16:51:17.667Z,99857.03
2023-01-12T16:53:46.095Z,99862.06
2023-01-12T16:56:14.855Z,99858.63
2023-01-12T16:58:47.562Z,99862.00
2023-01-12T17:01:17.367Z,99857.03
2023-01-12T17:03:44.078Z,99850.22
2023-01-12T17:06:12.658Z,99853.63
2023-01-12T17:08:39.382Z,99842.59
2023-01-12T17:11:07.953Z,99842.28
2023-01-12T17:13:34.759Z,99843.84
2023-01-12T17:16:01.330Z,99849.00
2023-01-12T17:18:28.371Z,99846.44
2023-01-12T17:21:06.350Z,99833.91
2023-01-12T17:23:33.095Z,99832.59
2023-01-12T17:26:04.080Z,99843.66
2023-01-12T17:28:31.409Z,99840.66
2023-01-12T17:30:58.065Z,99836.69
2023-01-12T17:33:24.575Z,99834.66
2023-01-12T17:35:51.193Z,99834.00
2023-01-12T17:38:17.633Z,99835.47
2023-01-12T17:40:44.121Z,99840.78
2023-01-12T17:43:14.590Z,99840.13
2023-01-12T17:45:42.724Z,99826.16
2023-01-12T17:48:11.849Z,99829.34
2023-01-12T17:50:40.256Z,99850.78
2023-01-12T17:53:11.560Z,99837.94
2023-01-12T17:55:47.691Z,99848.50
2023-01-12T17:58:17.362Z,99850.16
2023-01-12T18:00:44.229Z,99843.56
2023-01-12T18:03:10.645Z,99848.97
2023-01-12T18:05:37.053Z,99840.91
2023-01-12T18:08:03.451Z,99845.53
2023-01-12T18:10:29.807Z,99852.06
2023-01-12T18:12:56.214Z,99851.72
2023-01-12T18:15:23.876Z,99846.50
2023-01-12T18:17:50.505Z,99845.47
2023-01-12T18:20:17.010Z,99831.25
2023-01-12T18:22:43.545Z,99827.78
2023-01-12T18:25:10.159Z,99821.78
2023-01-12T18:27:36.629Z,99825.25
2023-01-12T18:30:03.486Z,99822.75
2023-01-12T18:32:29.927Z,99829.16
2023-01-12T18:34:57.756Z,99833.34
2023-01-12T18:37:24.199Z,99827.09
2023-01-12T18:39:50.769Z,99822.69
2023-01-12T18:42:46.129Z,99827.72
2023-01-12T18:45:12.531Z,99830.94
2023-01-12T18:47:57.587Z,99818.13
2023-01-12T18:50:42.359Z,99821.00
2023-01-12T18:53:23.138Z,99813.50
2023-01-12T18:55:59.205Z,99819.84
2023-01-12T18:58:31.249Z,99817.06
2023-01-12T19:01:05.313Z,99815.59
2023-01-12T19:03:31.883Z,99804.31
2023-01-12T19:05:58.223Z,99816.19
2023-01-12T19:08:26.372Z,99816.44
2023-01-12T19:10:52.824Z,99819.19
2023-01-12T19:13:37.803Z,99809.19
2023-01-12T19:16:23.662Z,99798.53
2023-01-12T19:18:50.162Z,99794.91
2023-01-12T19:21:35.152Z,99791.00
2023-01-12T19:24:20.428Z,99791.53
2023-01-12T19:27:05.250Z,99794.25
2023-01-12T19:29:31.610Z,99787.38
2023-01-12T19:31:58.003Z,99777.63
2023-01-12T19:34:24.808Z,99780.22
2023-01-12T19:36:51.328Z,99780.28
2023-01-12T19:39:26.919Z,99782.75
2023-01-12T19:42:11.854Z,99774.91
2023-01-12T19:44:38.240Z,99780.16
2023-01-12T19:47:04.638Z,99776.09
2023-01-12T19:49:31.024Z,99778.56
2023-01-12T19:51:57.452Z,99774.34
2023-01-12T19:54:23.974Z,99782.69
2023-01-12T19:56:50.394Z,99769.59
2023-01-12T19:59:16.808Z,99766.50
2023-01-12T20:01:43.317Z,99757.75
2023-01-12T20:04:09.758Z,99751.56
2023-01-12T20:06:36.240Z,99755.88
2023-01-12T20:09:02.732Z,99757.66
2023-01-12T20:11:29.636Z,99755.75
2023-01-12T20:13:56.033Z,99763.47
2023-01-12T20:16:22.517Z,99762.25
2023-01-12T20:18:48.945Z,99768.09
2023-01-12T20:21:15.375Z,99762.44
2023-01-12T20:23:41.855Z,99772.56
2023-01-12T20:26:09.012Z,99769.28
2023-01-12T20:28:36.099Z,99766.69
2023-01-12T20:31:09.235Z,99772.03
2023-01-12T20:33:35.624Z,99770.16
2023-01-12T20:36:01.966Z,99770.66
2023-01-12T20:38:28.542Z,99775.84
2023-01-12T20:40:54.918Z,99771.84
2023-01-12T20:43:21.269Z,99768.66
2023-01-12T20:45:47.886Z,99761.47
2023-01-12T20:48:15.318Z,99765.91
2023-01-12T20:50:43.279Z,99756.19
2023-01-12T20:53:11.383Z,99755.13
2023-01-12T20:55:42.573Z,99752.81
2023-01-12T20:58:09.510Z,99751.09
2023-01-12T21:00:36.057Z,99743.47
2023-01-12T21:03:03.494Z,99733.16
2023-01-12T21:05:30.033Z,99739.84
2023-01-12T21:08:07.551Z,99732.88
2023-01-12T21:10:34.742Z,99737.00
2023-01-12T21:13:01.109Z,99723.44
2023-01-12T21:15:27.568Z,99722.19
2023-01-12T21:17:54.081Z,99726.09
2023-01-12T21:20:20.516Z,99727.44
2023-01-12T21:22:46.951Z,99730.03
2023-01-12T21:25:13.686Z,99729.56
2023-01-12T21:27:40.190Z,99722.06
2023-01-12T21:30:07.344Z,99720.25
2023-01-12T21:32:33.837Z,99720.53
2023-01-12T21:35:00.289Z,99726.34
2023-01-12T21:37:26.666Z,99719.50
2023-01-12T21:39:53.136Z,99724.03
2023-01-12T21:42:37.963Z,99722.16
2023-01-12T21:45:04.804Z,99718.16
2023-01-12T21:47:31.420Z,99718.19
2023-01-12T21:49:57.829Z,99715.53
2023-01-12T21:52:24.266Z,99709.50
2023-01-12T21:54:50.656Z,99708.34
2023-01-12T21:57:17.085Z,99707.00
2023-01-12T21:59:43.484Z,99703.81
2023-01-12T22:02:11.501Z,99695.34
2023-01-12T22:04:37.953Z,99704.63
2023-01-12T22:07:04.366Z,99710.50
2023-01-12T22:09:30.822Z,99709.22
2023-01-12T22:11:57.285Z,99705.50
2023-01-12T22:14:23.815Z,99702.75
2023-01-12T22:16:50.271Z,99705.44
2023-01-12T22:19:17.000Z,99697.50
2023-01-12T22:21:44.166Z,99706.72
2023-01-12T22:24:10.559Z,99705.31
2023-01-12T22:26:36.907Z,99701.84
2023-01-12T22:29:03.385Z,99700.50
2023-01-12T22:31:29.990Z,99700.31
2023-01-12T22:34:02.537Z,99700.09
2023-01-12T22:36:29.686Z,99697.22
2023-01-12T22:38:56.112Z,99700.16
2023-01-12T22:41:22.646Z,99686.75
2023-01-12T22:43:49.433Z,99688.59
2023-01-12T22:46:21.900Z,99692.13
2023-01-12T22:48:56.157Z,99686.09
2023-01-12T22:51:24.868Z,99685.88
2023-01-12T22:53:52.129Z,99689.31
2023-01-12T22:56:19.053Z,99689.31
2023-01-12T22:58:47.715Z,99682.00
2023-01-12T23:01:14.523Z,99687.13
2023-01-12T23:03:40.916Z,99683.78
2023-01-12T23:06:11.440Z,99683.91
2023-01-12T23:08:37.862Z,99678.19
2023-01-12T23:11:08.677Z,99675.66
2023-01-12T23:13:35.376Z,99678.47
2023-01-12T23:16:06.018Z,99682.34
2023-01-12T23:18:34.152Z,99682.13
2023-01-12T23:21:03.135Z,99665.97
2023-01-12T23:23:30.630Z,99670.06
2023-01-12T23:26:04.924Z,99667.31
2023-01-12T23:28:35.547Z,99671.28
2023-01-12T23:31:13.513Z,99668.91
2023-01-12T23:33:41.579Z,99671.22
2023-01-12T23:36:10.769Z,99670.28
2023-01-12T23:38:37.702Z,99666.69
2023-01-12T23:41:19.248Z,99665.38
2023-01-12T23:43:46.844Z,99659.94
2023-01-12T23:46:13.887Z,99671.34
2023-01-12T23:48:40.708Z,99671.66
2023-01-12T23:51:07.063Z,99668.41
2023-01-12T23:53:33.456Z,99657.69
2023-01-12T23:56:07.999Z,99663.28
2023-01-12T23:58:34.424Z,99649.44
